Time;durP1;ratioP1;P1;durP2;ratioP2;P2;SDS_P1;SDS_P2;PMS_P1;PMS_P2;Temp;Humidity;BMP_temperature;BMP_pressure;BME280_temperature;BME280_humidity;BME280_pressure;Samples;Min_cycle;Max_cycle;Signal;HPM_P1;HPM_P2
2020/12/26 00:01:15;;;;;;;9.33;5.67;;;;;;;8.91;51.84;100175.48;1769327;80;21148;-79
2020/12/26 00:03:43;;;;;;;9.63;5.37;;;;;;;8.90;51.84;100175.11;1765716;80;21192;-79
2020/12/26 00:06:18;;;;;;;6.97;4.90;;;;;;;8.89;51.91;100183.63;1769658;80;22472;-77
2020/12/26 00:08:46;;;;;;;7.87;4.67;;;;;;;8.86;51.86;100181.28;1761271;80;21239;-80
2020/12/26 00:11:15;;;;;;;7.17;4.70;;;;;;;8.85;51.52;100178.74;1769955;80;21149;-77
2020/12/26 00:13:43;;;;;;;6.42;4.67;;;;;;;8.84;51.36;100182.41;1769716;80;21157;-79
2020/12/26 00:16:15;;;;;;;6.90;4.85;;;;;;;8.79;51.36;100184.20;1779050;80;21152;-78
2020/12/26 00:18:42;;;;;;;7.60;5.00;;;;;;;8.75;51.27;100187.34;1767841;80;22238;-78
2020/12/26 00:21:13;;;;;;;6.78;5.12;;;;;;;8.73;51.28;100192.01;1764777;80;21570;-78
2020/12/26 00:23:41;;;;;;;7.65;4.90;;;;;;;8.71;51.19;100195.31;1772679;80;21165;-80
2020/12/26 00:26:09;;;;;;;8.30;4.58;;;;;;;8.67;51.02;100203.28;1773449;80;21129;-80
2020/12/26 00:28:37;;;;;;;7.28;4.40;;;;;;;8.65;50.97;100207.45;1769750;80;21407;-79
2020/12/26 00:31:05;;;;;;;9.08;4.58;;;;;;;8.64;50.95;100207.11;1777704;80;21346;-78
2020/12/26 00:33:33;;;;;;;8.10;4.92;;;;;;;8.63;51.08;100219.63;1785272;80;21156;-78
2020/12/26 00:36:01;;;;;;;8.75;4.90;;;;;;;8.63;51.31;100216.95;1785038;80;21608;-80
2020/12/26 00:38:30;;;;;;;6.60;4.45;;;;;;;8.62;51.36;100223.26;1785120;79;21109;-79
2020/12/26 00:40:57;;;;;;;7.55;4.05;;;;;;;8.60;51.46;100225.25;1774824;80;21156;-78
2020/12/26 00:43:25;;;;;;;5.65;4.10;;;;;;;8.59;51.51;100220.08;1785151;80;21187;-79
2020/12/26 00:45:53;;;;;;;5.83;4.20;;;;;;;8.59;51.51;100219.58;1784694;80;21411;-78
2020/12/26 00:48:21;;;;;;;6.72;3.98;;;;;;;8.60;51.19;100206.56;1785404;80;21185;-79
2020/12/26 00:50:50;;;;;;;7.65;4.92;;;;;;;8.59;51.18;100196.05;1785141;80;21227;-78
2020/12/26 00:53:18;;;;;;;4.62;3.52;;;;;;;8.59;51.08;100194.22;1785549;80;21503;-79
2020/12/26 00:55:47;;;;;;;5.25;4.03;;;;;;;8.57;51.02;100196.18;1785130;80;21806;-78
2020/12/26 00:58:16;;;;;;;5.53;3.60;;;;;;;8.58;50.82;100203.22;1785223;80;21188;-79
2020/12/26 01:00:44;;;;;;;5.45;3.33;;;;;;;8.56;50.85;100199.84;1785181;80;21193;-79
2020/12/26 01:03:30;;;;;;;4.90;3.05;;;;;;;8.57;50.85;100200.68;1780342;80;21193;-77
2020/12/26 01:05:58;;;;;;;4.92;2.92;;;;;;;8.59;50.73;100202.23;1778946;80;21152;-79
2020/12/26 01:08:26;;;;;;;4.53;3.00;;;;;;;8.58;50.51;100220.58;1779005;80;21374;-79
2020/12/26 01:10:54;;;;;;;4.97;3.12;;;;;;;8.57;50.62;100229.55;1785494;80;21083;-78
2020/12/26 01:13:23;;;;;;;4.37;2.58;;;;;;;8.58;50.65;100225.05;1785412;80;21500;-78
2020/12/26 01:15:52;;;;;;;3.50;2.80;;;;;;;8.58;50.36;100225.91;1785201;80;21133;-78
2020/12/26 01:18:20;;;;;;;3.30;2.40;;;;;;;8.60;50.43;100230.59;1785849;80;21069;-79
2020/12/26 01:20:48;;;;;;;4.85;2.80;;;;;;;8.55;50.40;100239.55;1784949;80;22632;-78
2020/12/26 01:23:16;;;;;;;3.17;2.47;;;;;;;8.53;50.50;100232.17;1784611;80;21164;-78
2020/12/26 01:25:44;;;;;;;5.53;2.70;;;;;;;8.52;50.38;100227.83;1784582;80;21176;-78
2020/12/26 01:28:11;;;;;;;4.08;2.87;;;;;;;8.49;50.38;100217.45;1784804;80;21157;-78
2020/12/26 01:30:39;;;;;;;4.95;3.00;;;;;;;8.48;50.68;100217.61;1784998;80;21153;-79
2020/12/26 01:33:07;;;;;;;5.12;2.67;;;;;;;8.46;50.56;100220.44;1785138;80;22031;-79
2020/12/26 01:35:35;;;;;;;5.70;3.02;;;;;;;8.47;50.56;100223.94;1783996;80;21264;-79
2020/12/26 01:38:03;;;;;;;3.98;2.58;;;;;;;8.45;50.73;100217.89;1748942;81;21660;-79
2020/12/26 01:40:31;;;;;;;5.58;2.92;;;;;;;8.45;50.63;100224.10;1767743;79;21204;-82
2020/12/26 01:42:59;;;;;;;4.58;3.22;;;;;;;8.42;50.51;100217.72;1765307;80;21181;-82
2020/12/26 01:45:27;;;;;;;6.70;3.67;;;;;;;8.40;50.55;100213.02;1746762;82;22340;-79
2020/12/26 01:47:54;;;;;;;5.37;3.40;;;;;;;8.43;50.63;100220.73;1746563;82;21217;-81
2020/12/26 01:50:22;;;;;;;6.15;3.30;;;;;;;8.45;50.77;100213.89;1691590;82;21532;-82
2020/12/26 01:52:51;;;;;;;7.37;3.45;;;;;;;8.44;50.64;100221.56;1716115;82;21227;-81
2020/12/26 01:55:19;;;;;;;6.75;3.52;;;;;;;8.42;50.66;100221.72;1747124;82;21188;-78
2020/12/26 01:57:52;;;;;;;5.92;3.95;;;;;;;8.43;50.68;100233.23;1747032;82;21286;-77
2020/12/26 02:00:20;;;;;;;6.03;3.45;;;;;;;8.41;50.84;100234.73;1746256;82;21201;-80
2020/12/26 02:02:50;;;;;;;5.28;3.83;;;;;;;8.39;50.91;100232.69;1746925;82;21173;-81
2020/12/26 02:05:19;;;;;;;5.10;3.27;;;;;;;8.37;50.81;100232.84;1747313;82;21196;-80
2020/12/26 02:07:47;;;;;;;5.22;3.55;;;;;;;8.37;50.88;100234.19;1747491;82;21228;-79
2020/12/26 02:10:15;;;;;;;5.53;3.77;;;;;;;8.34;50.98;100235.77;1747733;82;21525;-77
2020/12/26 02:12:43;;;;;;;8.05;4.53;;;;;;;8.29;51.12;100234.05;1747954;82;21188;-78
2020/12/26 02:15:14;;;;;;;6.78;4.62;;;;;;;8.31;51.41;100235.22;1748069;82;21184;-79
2020/12/26 02:17:42;;;;;;;8.00;4.10;;;;;;;8.35;51.38;100237.94;1748183;82;21172;-77
2020/12/26 02:20:11;;;;;;;5.70;4.05;;;;;;;8.37;51.32;100240.02;1748239;82;21215;-78
2020/12/26 02:22:39;;;;;;;9.00;4.12;;;;;;;8.36;51.29;100239.19;1748114;82;21790;-79
2020/12/26 02:25:09;;;;;;;4.90;3.55;;;;;;;8.39;51.23;100247.37;1717413;82;21164;-78
2020/12/26 02:27:36;;;;;;;6.97;3.98;;;;;;;8.41;51.25;100245.41;1748014;82;21180;-76
2020/12/26 02:30:04;;;;;;;4.70;3.42;;;;;;;8.42;51.24;100239.57;1750168;80;21133;-77
2020/12/26 02:32:32;;;;;;;5.75;3.67;;;;;;;8.41;51.34;100236.56;1790188;80;21228;-77
2020/12/26 02:35:00;;;;;;;4.08;3.10;;;;;;;8.42;51.53;100239.57;1790478;80;21329;-79
2020/12/26 02:37:28;;;;;;;5.92;3.50;;;;;;;8.42;51.36;100234.23;1786579;80;21145;-76
2020/12/26 02:39:56;;;;;;;6.00;3.47;;;;;;;8.42;51.28;100235.06;1785093;80;21196;-79
2020/12/26 02:42:24;;;;;;;5.55;3.70;;;;;;;8.42;51.36;100237.73;1785071;80;21181;-79
2020/12/26 02:44:52;;;;;;;6.03;3.40;;;;;;;8.42;51.42;100234.23;1785125;80;21145;-79
2020/12/26 02:47:20;;;;;;;4.28;3.25;;;;;;;8.43;51.36;100237.23;1784723;80;21345;-77
2020/12/26 02:49:47;;;;;;;5.20;3.75;;;;;;;8.44;51.28;100240.25;1784760;80;21197;-77
2020/12/26 02:52:15;;;;;;;5.20;3.47;;;;;;;8.46;51.29;100245.80;1785180;80;21620;-78
2020/12/26 02:54:43;;;;;;;5.92;3.67;;;;;;;8.48;51.21;100246.47;1785143;80;21200;-78
2020/12/26 02:57:11;;;;;;;4.55;3.65;;;;;;;8.49;51.13;100249.48;1785623;80;21221;-76
2020/12/26 02:59:38;;;;;;;4.80;3.70;;;;;;;8.48;50.99;100258.98;1785519;80;21788;-76
2020/12/26 03:02:06;;;;;;;4.42;3.25;;;;;;;8.48;50.89;100256.31;1785067;80;21201;-79
2020/12/26 03:04:34;;;;;;;4.92;3.20;;;;;;;8.48;50.87;100256.31;1785276;80;21165;-77
2020/12/26 03:07:02;;;;;;;5.10;2.77;;;;;;;8.46;50.62;100268.48;1785323;80;21165;-77
2020/12/26 03:09:30;;;;;;;3.37;2.62;;;;;;;8.42;50.48;100270.27;1785143;80;21686;-79
2020/12/26 03:11:58;;;;;;;2.87;2.45;;;;;;;8.37;50.23;100272.05;1784791;80;21777;-80
2020/12/26 03:14:27;;;;;;;4.92;2.67;;;;;;;8.35;50.29;100276.14;1784900;80;21157;-78
2020/12/26 03:16:55;;;;;;;4.58;2.77;;;;;;;8.37;50.30;100280.05;1785020;80;21327;-78
2020/12/26 03:19:23;;;;;;;4.20;2.92;;;;;;;8.40;50.47;100274.39;1785529;80;21185;-77
2020/12/26 03:21:50;;;;;;;4.12;2.75;;;;;;;8.43;50.62;100276.78;1778972;80;21180;-79
2020/12/26 03:24:18;;;;;;;4.28;2.77;;;;;;;8.44;50.88;100277.61;1768484;80;21193;-79
2020/12/26 03:26:46;;;;;;;4.00;2.77;;;;;;;8.47;50.80;100283.50;1773850;80;21199;-78
2020/12/26 03:29:13;;;;;;;4.15;3.40;;;;;;;8.52;50.82;100295.06;1773646;80;21525;-79
2020/12/26 03:31:41;;;;;;;10.85;3.47;;;;;;;8.56;50.72;100295.95;1768884;80;21196;-79
2020/12/26 03:34:09;;;;;;;5.90;3.72;;;;;;;8.61;50.78;100292.34;1777302;80;21156;-79
2020/12/26 03:36:38;;;;;;;8.75;4.30;;;;;;;8.63;50.82;100289.04;1776281;80;21349;-76
2020/12/26 03:39:06;;;;;;;11.03;4.55;;;;;;;8.66;50.75;100290.55;1772394;80;21184;-79
2020/12/26 03:41:34;;;;;;;9.30;4.87;;;;;;;8.67;50.84;100288.72;1776950;80;21169;-78
2020/12/26 03:44:01;;;;;;;8.05;4.97;;;;;;;8.67;50.85;100294.06;1773883;80;21164;-78
2020/12/26 03:46:30;;;;;;;8.55;4.85;;;;;;;8.65;50.75;100299.56;1769516;80;21213;-77
2020/12/26 03:48:58;;;;;;;10.28;4.50;;;;;;;8.64;50.76;100293.38;1773528;80;21911;-79
2020/12/26 03:51:28;;;;;;;12.25;5.85;;;;;;;8.64;50.85;100293.38;1783653;80;21509;-77
2020/12/26 03:53:56;;;;;;;6.72;4.60;;;;;;;8.63;50.93;100290.88;1784641;80;21168;-78
2020/12/26 03:56:25;;;;;;;7.33;4.55;;;;;;;8.62;50.85;100289.17;1784704;80;21184;-77
2020/12/26 03:58:52;;;;;;;8.18;4.72;;;;;;;8.60;50.80;100285.33;1784626;80;21172;-78
2020/12/26 04:01:20;;;;;;;7.33;4.75;;;;;;;8.61;50.89;100289.66;1784510;80;21200;-77
2020/12/26 04:03:48;;;;;;;6.05;4.65;;;;;;;8.62;50.98;100298.02;1784311;80;21181;-79
2020/12/26 04:06:16;;;;;;;6.08;5.37;;;;;;;8.62;51.09;100291.34;1784390;80;21189;-80
2020/12/26 04:08:46;;;;;;;7.12;5.35;;;;;;;8.62;51.02;100293.17;1784466;80;21197;-78
2020/12/26 04:11:13;;;;;;;7.37;5.20;;;;;;;8.59;51.08;100294.33;1768685;80;21161;-79
2020/12/26 04:13:41;;;;;;;8.18;5.87;;;;;;;8.58;51.13;100288.66;1768358;80;21351;-80
2020/12/26 04:16:12;;;;;;;8.80;6.28;;;;;;;8.58;51.19;100300.67;1772711;80;21164;-77
2020/12/26 04:18:39;;;;;;;9.28;5.90;;;;;;;8.58;51.12;100298.46;1759325;80;21184;-76
2020/12/26 04:21:08;;;;;;;8.43;6.50;;;;;;;8.56;51.05;100295.95;1768401;80;21656;-78
2020/12/26 04:23:37;;;;;;;8.55;6.08;;;;;;;8.57;51.07;100308.80;1767623;80;21181;-79
2020/12/26 04:26:09;;;;;;;9.18;6.67;;;;;;;8.57;51.15;100310.14;1765057;80;21534;-77
2020/12/26 04:28:37;;;;;;;11.43;8.38;;;;;;;8.57;51.11;100304.80;1767167;80;21065;-81
2020/12/26 04:31:05;;;;;;;12.88;8.60;;;;;;;8.55;50.98;100312.97;1766719;80;21671;-79
2020/12/26 04:33:33;;;;;;;12.13;8.23;;;;;;;8.53;51.02;100318.93;1771660;80;21172;-80
2020/12/26 04:36:00;;;;;;;14.95;9.25;;;;;;;8.53;51.06;100316.27;1768846;80;21526;-80
2020/12/26 04:38:28;;;;;;;16.15;9.18;;;;;;;8.55;51.05;100322.31;1768861;80;21379;-82
2020/12/26 04:40:57;;;;;;;21.25;11.10;;;;;;;8.57;51.17;100324.33;1778283;80;21185;-83
2020/12/26 04:43:28;;;;;;;14.40;9.35;;;;;;;8.57;51.19;100317.65;1764802;80;21161;-78
2020/12/26 04:45:57;;;;;;;15.75;9.95;;;;;;;8.56;51.08;100314.64;1777439;80;21193;-80
2020/12/26 04:48:27;;;;;;;14.10;9.78;;;;;;;8.55;50.99;100315.64;1784160;80;21172;-79
2020/12/26 04:51:02;;;;;;;15.85;10.25;;;;;;;8.56;50.96;100317.31;1784154;80;21808;-78
2020/12/26 04:53:34;;;;;;;13.58;9.33;;;;;;;8.55;50.99;100321.48;1785383;80;21070;-75
2020/12/26 04:56:02;;;;;;;14.60;9.45;;;;;;;8.53;51.05;100323.44;1785465;80;21113;-78
2020/12/26 04:58:31;;;;;;;15.60;9.83;;;;;;;8.51;51.12;100328.09;1785236;80;21125;-77
2020/12/26 05:01:00;;;;;;;15.53;9.60;;;;;;;8.50;51.10;100335.27;1784989;80;21045;-81
2020/12/26 05:03:28;;;;;;;15.68;10.15;;;;;;;8.51;51.08;100336.10;1785205;80;22217;-77
2020/12/26 05:06:06;;;;;;;14.03;8.08;;;;;;;8.51;51.09;100340.11;1784757;80;21555;-79
2020/12/26 05:08:34;;;;;;;14.40;9.00;;;;;;;8.51;51.04;100340.94;1785356;80;21140;-77
2020/12/26 05:11:02;;;;;;;13.80;7.95;;;;;;;8.51;51.11;100354.30;1785534;78;21169;-78
2020/12/26 05:13:31;;;;;;;13.85;8.25;;;;;;;8.53;51.18;100342.95;1783466;80;21161;-81
2020/12/26 05:15:58;;;;;;;13.90;8.95;;;;;;;8.53;51.21;100349.63;1803126;78;21373;-80
2020/12/26 05:18:26;;;;;;;15.43;9.10;;;;;;;8.50;51.22;100355.29;1817686;78;21125;-82
2020/12/26 05:20:56;;;;;;;14.43;8.93;;;;;;;8.48;51.23;100359.91;1808450;78;21157;-81
2020/12/26 05:23:24;;;;;;;14.98;9.98;;;;;;;8.50;51.18;100375.31;1783764;80;21179;-81
2020/12/26 05:25:51;;;;;;;16.50;9.68;;;;;;;8.49;51.20;100378.94;1785191;80;21192;-83
2020/12/26 05:28:21;;;;;;;20.32;10.82;;;;;;;8.48;51.22;100375.93;1785170;80;22233;-81
2020/12/26 05:30:50;;;;;;;20.37;11.53;;;;;;;8.46;51.25;100375.25;1791213;78;21197;-81
2020/12/26 05:33:19;;;;;;;25.45;13.22;;;;;;;8.44;51.36;100386.55;1816095;78;21165;-79
2020/12/26 05:35:49;;;;;;;20.97;12.40;;;;;;;8.44;51.27;100390.55;1817177;78;21196;-80
2020/12/26 05:38:23;;;;;;;22.27;11.10;;;;;;;8.44;51.34;100404.39;1817335;78;21173;-82
2020/12/26 05:40:57;;;;;;;18.20;11.22;;;;;;;8.43;51.31;100412.06;1817397;78;21785;-81
2020/12/26 05:43:27;;;;;;;20.20;10.60;;;;;;;8.43;51.40;100420.91;1810872;78;21184;-77
2020/12/26 05:45:55;;;;;;;18.90;11.25;;;;;;;8.45;51.46;100428.76;1784811;80;21188;-78
2020/12/26 05:48:26;;;;;;;18.55;11.40;;;;;;;8.46;51.32;100436.64;1784779;80;21185;-78
2020/12/26 05:50:57;;;;;;;20.30;11.55;;;;;;;8.47;51.25;100442.82;1785371;80;21209;-79
2020/12/26 05:53:26;;;;;;;18.23;10.98;;;;;;;8.48;51.21;100455.17;1784009;80;21300;-78
2020/12/26 05:55:54;;;;;;;24.30;11.90;;;;;;;8.47;51.16;100457.00;1785163;80;21141;-77
2020/12/26 05:58:24;;;;;;;21.90;11.78;;;;;;;8.47;51.10;100457.00;1785120;80;21185;-77
2020/12/26 06:00:52;;;;;;;19.77;10.72;;;;;;;8.45;51.08;100452.32;1785328;80;21196;-79
2020/12/26 06:03:33;;;;;;;21.77;11.35;;;;;;;8.45;51.01;100450.11;1784781;80;21217;-78
2020/12/26 06:06:03;;;;;;;17.90;10.43;;;;;;;8.47;50.97;100450.83;1785166;80;21368;-79
2020/12/26 06:08:31;;;;;;;19.95;10.00;;;;;;;8.46;50.83;100466.50;1785638;80;21129;-81
2020/12/26 06:11:05;;;;;;;17.42;9.93;;;;;;;8.47;50.77;100463.68;1784751;80;21160;-80
2020/12/26 06:13:36;;;;;;;17.30;8.90;;;;;;;8.47;50.75;100459.67;1784392;80;21726;-80
2020/12/26 06:16:12;;;;;;;12.73;7.30;;;;;;;8.45;50.79;100479.02;1784787;79;21141;-77
2020/12/26 06:18:57;;;;;;;15.30;8.28;;;;;;;8.45;50.83;100479.02;1783142;80;21385;-82
2020/12/26 06:21:26;;;;;;;15.28;7.83;;;;;;;8.46;50.81;100479.36;1783888;80;21220;-81
2020/12/26 06:23:54;;;;;;;13.32;7.15;;;;;;;8.50;50.69;100487.42;1807424;78;21153;-79
2020/12/26 06:26:22;;;;;;;10.82;6.35;;;;;;;8.53;50.70;100495.63;1784308;78;21173;-78
2020/12/26 06:28:49;;;;;;;14.20;6.78;;;;;;;8.53;50.56;100496.46;1785131;78;21000;-77
2020/12/26 06:31:17;;;;;;;11.55;7.08;;;;;;;8.53;50.56;100496.46;1734713;82;21980;-79
2020/12/26 06:33:48;;;;;;;10.75;6.37;;;;;;;8.53;50.62;100491.62;1765158;81;21165;-78
2020/12/26 06:36:19;;;;;;;10.28;6.67;;;;;;;8.53;50.50;100499.13;1768517;78;21130;-79
2020/12/26 06:38:47;;;;;;;11.93;6.28;;;;;;;8.52;50.46;100497.95;1753319;81;21124;-78
2020/12/26 06:41:15;;;;;;;11.50;6.75;;;;;;;8.51;50.38;100495.77;1753240;81;21556;-76
2020/12/26 06:43:50;;;;;;;12.65;7.28;;;;;;;8.49;50.41;100496.39;1756065;80;21540;-80
2020/12/26 06:46:29;;;;;;;11.75;7.95;;;;;;;8.47;50.34;100499.72;1783413;80;21465;-77
2020/12/26 06:48:58;;;;;;;13.32;8.40;;;;;;;8.46;50.37;100496.70;1750153;81;21136;-77
2020/12/26 06:51:42;;;;;;;10.23;7.20;;;;;;;8.45;50.47;100499.03;1754476;81;21137;-79
2020/12/26 06:54:12;;;;;;;13.62;8.10;;;;;;;8.45;50.38;100499.03;1715918;83;21585;-77
2020/12/26 06:56:45;;;;;;;11.85;7.47;;;;;;;8.45;50.31;100499.03;1676336;84;21998;-80
2020/12/26 06:59:13;;;;;;;12.13;7.17;;;;;;;8.45;50.28;100500.83;1775739;78;21106;-80
2020/12/26 07:01:44;;;;;;;8.25;5.87;;;;;;;8.45;50.51;100495.49;1738739;81;21687;-78
2020/12/26 07:04:20;;;;;;;11.88;6.50;;;;;;;8.48;50.35;100503.22;1767704;81;21673;-80
2020/12/26 07:06:53;;;;;;;10.38;6.30;;;;;;;8.49;50.18;100508.41;1769120;81;21094;-81
2020/12/26 07:09:42;;;;;;;13.28;7.60;;;;;;;8.52;50.16;100506.80;1768998;81;21482;-77
2020/12/26 07:12:11;;;;;;;14.00;7.15;;;;;;;8.55;50.10;100510.52;1771259;80;21196;-78
2020/12/26 07:14:46;;;;;;;12.53;7.35;;;;;;;8.58;50.13;100512.05;1784055;80;21117;-80
2020/12/26 07:17:19;;;;;;;17.00;6.95;;;;;;;8.62;50.08;100514.78;1752476;80;21118;-79
2020/12/26 07:19:48;;;;;;;10.08;6.17;;;;;;;8.63;50.03;100509.31;1784549;80;21624;-78
2020/12/26 07:22:29;;;;;;;13.88;7.40;;;;;;;8.64;49.82;100510.99;1784761;80;22312;-80
2020/12/26 07:25:07;;;;;;;13.58;7.67;;;;;;;8.66;49.83;100508.66;1785071;80;21105;-80
2020/12/26 07:27:41;;;;;;;11.18;6.97;;;;;;;8.68;49.73;100509.38;1784912;80;21579;-81
2020/12/26 07:30:14;;;;;;;13.45;7.28;;;;;;;8.67;49.59;100504.50;1770039;80;21624;-79
2020/12/26 07:32:46;;;;;;;9.80;6.12;;;;;;;8.67;49.68;100501.00;1718397;83;22076;-79
2020/12/26 07:35:25;;;;;;;10.58;6.45;;;;;;;8.67;49.37;100510.34;1718445;83;21843;-77
2020/12/26 07:38:01;;;;;;;10.60;5.97;;;;;;;8.66;49.35;100512.17;1751444;81;21661;-79
2020/12/26 07:40:37;;;;;;;8.33;5.30;;;;;;;8.67;49.37;100517.02;1717767;83;21181;-82
2020/12/26 07:43:15;;;;;;;6.80;4.50;;;;;;;8.67;49.38;100519.19;1751061;81;21201;-78
2020/12/26 07:45:45;;;;;;;8.05;4.55;;;;;;;8.66;49.15;100520.68;1718293;83;21188;-84
2020/12/26 07:48:13;;;;;;;9.93;4.90;;;;;;;8.67;49.09;100521.86;1715700;82;21366;-81
2020/12/26 07:50:43;;;;;;;6.53;4.67;;;;;;;8.68;49.06;100517.39;1744132;81;21192;-77
2020/12/26 07:53:13;;;;;;;8.00;5.08;;;;;;;8.70;49.12;100514.07;1774822;78;21712;-78
2020/12/26 07:55:44;;;;;;;8.55;5.62;;;;;;;8.71;48.90;100513.91;1766946;78;21227;-77
2020/12/26 07:58:12;;;;;;;8.90;6.05;;;;;;;8.71;48.92;100519.75;1777143;80;21192;-79
2020/12/26 08:00:43;;;;;;;7.97;5.30;;;;;;;8.72;48.93;100522.30;1775270;78;22328;-79
2020/12/26 08:03:12;;;;;;;7.40;5.03;;;;;;;8.70;48.90;100526.08;1785434;78;21205;-78
2020/12/26 08:05:46;;;;;;;7.05;5.17;;;;;;;8.70;48.84;100522.08;1778914;80;21093;-77
2020/12/26 08:08:23;;;;;;;7.25;5.10;;;;;;;8.69;48.76;100529.75;1759996;78;21535;-79
2020/12/26 08:11:00;;;;;;;10.18;5.50;;;;;;;8.70;48.73;100532.27;1774092;78;21626;-78
2020/12/26 08:13:30;;;;;;;8.77;5.20;;;;;;;8.70;48.89;100538.94;1774397;78;21407;-78
2020/12/26 08:16:04;;;;;;;7.60;4.70;;;;;;;8.73;48.92;100560.52;1770753;80;22259;-77
2020/12/26 08:18:32;;;;;;;7.47;5.35;;;;;;;8.75;48.89;100559.88;1776197;78;21184;-81
2020/12/26 08:21:00;;;;;;;10.10;6.92;;;;;;;8.77;49.15;100563.26;1764765;78;21120;-79
2020/12/26 08:23:28;;;;;;;7.10;4.70;;;;;;;8.78;49.15;100555.59;1773446;78;21158;-79
2020/12/26 08:26:02;;;;;;;6.10;4.25;;;;;;;8.80;48.99;100567.80;1773709;80;21176;-78
2020/12/26 08:28:30;;;;;;;7.87;4.50;;;;;;;8.80;48.79;100577.14;1778159;78;21153;-79
2020/12/26 08:31:02;;;;;;;9.93;5.12;;;;;;;8.81;48.55;100569.97;1768522;78;21716;-79
2020/12/26 08:33:38;;;;;;;8.20;4.62;;;;;;;8.82;48.53;100566.34;1733887;78;21403;-80
2020/12/26 08:36:36;;;;;;;7.65;3.80;;;;;;;8.83;48.19;100568.02;1764237;80;21105;-80
2020/12/26 08:39:04;;;;;;;7.03;4.20;;;;;;;8.82;48.06;100563.17;1785971;78;21409;-78
2020/12/26 08:41:40;;;;;;;6.47;4.30;;;;;;;8.81;47.81;100560.16;1776260;78;21184;-79
2020/12/26 08:44:11;;;;;;;5.90;4.58;;;;;;;8.83;47.75;100561.34;1786214;78;21125;-78
2020/12/26 08:46:44;;;;;;;6.37;4.25;;;;;;;8.79;47.86;100556.77;1779497;78;21405;-80
2020/12/26 08:49:13;;;;;;;6.60;4.28;;;;;;;8.78;48.15;100547.58;1766581;80;21217;-78
2020/12/26 08:51:42;;;;;;;7.87;4.78;;;;;;;8.79;48.15;100546.58;1763701;80;21363;-78
2020/12/26 08:54:20;;;;;;;6.05;4.33;;;;;;;8.79;48.09;100546.09;1746907;80;21185;-79
2020/12/26 08:56:47;;;;;;;7.25;3.80;;;;;;;8.80;47.59;100566.46;1740885;80;21128;-79
2020/12/26 08:59:29;;;;;;;4.67;3.60;;;;;;;8.78;46.89;100575.62;1781128;78;21209;-79
2020/12/26 09:01:57;;;;;;;12.60;4.30;;;;;;;8.75;47.06;100597.27;1769133;78;21216;-78
2020/12/26 09:04:27;;;;;;;6.03;3.90;;;;;;;8.74;47.25;100600.43;1771409;80;21341;-81
2020/12/26 09:06:57;;;;;;;6.15;4.92;;;;;;;8.74;47.25;100586.23;1769685;80;21308;-78
2020/12/26 09:09:26;;;;;;;6.50;4.33;;;;;;;8.74;46.98;100571.05;1770287;78;21190;-78
2020/12/26 09:12:04;;;;;;;8.08;4.45;;;;;;;8.76;47.03;100576.23;1741858;78;21185;-78
2020/12/26 09:14:33;;;;;;;;;;;;;;;8.75;46.86;100578.56;1779492;80;21557;-77
2020/12/26 09:17:02;;;;;;;4.30;3.30;;;;;;;8.74;47.10;100565.71;1781342;78;22353;-78
2020/12/26 09:19:47;;;;;;;4.00;3.40;;;;;;;8.74;47.37;100555.03;1767717;78;21189;-82
2020/12/26 09:22:16;;;;;;;6.50;3.70;;;;;;;8.76;47.12;100559.72;1773342;78;21106;-79
2020/12/26 09:24:44;;;;;;;7.22;3.95;;;;;;;8.78;47.11;100552.92;1789019;78;21118;-79
2020/12/26 09:27:22;;;;;;;6.58;3.17;;;;;;;8.81;47.05;100552.14;1782158;78;21189;-81
2020/12/26 09:30:03;;;;;;;4.45;3.15;;;;;;;8.84;47.07;100555.84;1792249;78;21808;-78
2020/12/26 09:32:31;;;;;;;7.15;3.52;;;;;;;8.90;47.17;100554.41;1755858;80;20940;-79
2020/12/26 09:34:59;;;;;;;3.45;2.92;;;;;;;8.95;47.26;100564.20;1774040;78;21681;-78
2020/12/26 09:37:28;;;;;;;4.95;3.00;;;;;;;9.03;47.21;100572.30;1770630;80;21597;-79
2020/12/26 09:39:56;;;;;;;3.85;2.80;;;;;;;9.09;47.19;100585.10;1773424;80;21557;-78
2020/12/26 09:42:25;;;;;;;4.37;3.17;;;;;;;9.14;47.11;100577.48;1773008;78;21435;-80
2020/12/26 09:44:52;;;;;;;5.15;3.08;;;;;;;9.22;46.87;100578.10;1775365;78;21134;-81
2020/12/26 09:47:21;;;;;;;2.98;2.58;;;;;;;9.28;46.46;100573.99;1768998;78;21097;-79
2020/12/26 09:49:50;;;;;;;2.58;2.33;;;;;;;9.32;45.80;100566.03;1741899;80;21863;-78
2020/12/26 09:52:18;;;;;;;4.33;2.58;;;;;;;9.34;45.62;100566.21;1782038;78;21137;-81
2020/12/26 09:54:45;;;;;;;3.80;2.83;;;;;;;9.39;45.55;100568.44;1786883;78;22239;-79
2020/12/26 09:57:13;;;;;;;2.87;2.40;;;;;;;9.47;45.66;100572.56;1777520;78;21094;-78
2020/12/26 09:59:43;;;;;;;3.70;2.70;;;;;;;9.55;45.40;100570.49;1765011;78;21101;-78
2020/12/26 10:02:11;;;;;;;3.10;2.75;;;;;;;9.61;45.02;100566.71;1781330;78;21117;-81
2020/12/26 10:04:43;;;;;;;3.98;2.83;;;;;;;9.68;44.73;100574.16;1768227;78;21113;-78
2020/12/26 10:07:12;;;;;;;7.20;3.33;;;;;;;9.74;44.01;100577.56;1778280;78;21349;-78
2020/12/26 10:09:40;;;;;;;5.70;3.25;;;;;;;9.79;44.17;100577.45;1773245;78;21125;-82
2020/12/26 10:12:10;;;;;;;5.62;3.92;;;;;;;9.85;44.04;100582.69;1766522;80;21177;-79
2020/12/26 10:14:40;;;;;;;6.15;4.10;;;;;;;9.90;43.87;100589.77;1773731;78;21865;-78
2020/12/26 10:17:10;;;;;;;6.78;4.15;;;;;;;9.93;43.35;100592.15;1780485;80;21723;-78
2020/12/26 10:19:39;;;;;;;5.80;4.40;;;;;;;9.93;43.68;100588.63;1771400;78;21945;-78
2020/12/26 10:22:07;;;;;;;4.55;3.90;;;;;;;9.95;43.88;100578.14;1772466;80;21209;-79
2020/12/26 10:24:38;;;;;;;4.65;3.27;;;;;;;9.99;43.63;100568.82;1771147;80;21197;-81
2020/12/26 10:27:05;;;;;;;4.25;3.42;;;;;;;9.99;43.42;100571.50;1741226;78;22285;-77
2020/12/26 10:29:33;;;;;;;4.97;2.85;;;;;;;9.97;43.39;100573.46;1782196;78;21193;-81
2020/12/26 10:32:04;;;;;;;5.03;3.90;;;;;;;9.97;43.52;100572.13;1772010;78;21366;-80
2020/12/26 10:34:33;;;;;;;4.62;3.72;;;;;;;9.96;43.59;100570.45;1728411;80;21656;-78
2020/12/26 10:37:00;;;;;;;5.22;3.47;;;;;;;9.95;43.49;100572.79;1705507;80;21221;-82
2020/12/26 10:39:28;;;;;;;4.25;3.33;;;;;;;9.95;43.45;100574.59;1773755;78;21180;-79
2020/12/26 10:41:56;;;;;;;5.83;4.50;;;;;;;9.93;43.29;100576.09;1766904;80;21192;-83
2020/12/26 10:44:24;;;;;;;6.08;3.77;;;;;;;9.90;43.31;100576.39;1772048;80;21431;-80
2020/12/26 10:46:55;;;;;;;5.83;3.47;;;;;;;9.88;43.29;100593.94;1769748;80;21184;-80
2020/12/26 10:49:26;;;;;;;7.58;3.50;;;;;;;9.86;42.95;100595.09;1773441;78;21169;-81
2020/12/26 10:51:54;;;;;;;7.97;3.62;;;;;;;9.84;42.99;100595.22;1737617;80;21208;-80
2020/12/26 10:54:24;;;;;;;5.83;3.75;;;;;;;9.82;42.75;100600.40;1779172;80;21200;-81
2020/12/26 10:56:52;;;;;;;5.12;3.55;;;;;;;9.81;42.70;100599.56;1770200;80;22816;-80
2020/12/26 10:59:22;;;;;;;4.53;3.30;;;;;;;9.82;42.92;100597.72;1780495;80;21188;-79
2020/12/26 11:01:50;;;;;;;5.37;3.15;;;;;;;9.79;43.01;100591.33;1776102;80;21617;-79
2020/12/26 11:04:20;;;;;;;4.37;2.85;;;;;;;9.79;43.01;100591.33;1771841;78;21216;-80
2020/12/26 11:06:49;;;;;;;6.37;2.90;;;;;;;9.75;42.65;100592.11;1770052;80;21188;-79
2020/12/26 11:09:19;;;;;;;4.22;2.75;;;;;;;9.71;42.73;100597.41;1769659;80;22274;-81
2020/12/26 11:11:52;;;;;;;3.70;2.77;;;;;;;9.71;42.48;100601.92;1781375;78;21574;-80
2020/12/26 11:14:20;;;;;;;6.60;2.80;;;;;;;9.68;42.48;100599.56;1779182;78;21090;-81
2020/12/26 11:16:50;;;;;;;3.37;2.47;;;;;;;9.63;42.41;100610.22;1764569;80;21460;-81
2020/12/26 11:19:18;;;;;;;2.85;2.35;;;;;;;9.62;42.60;100615.69;1773445;79;21108;-78
2020/12/26 11:21:52;;;;;;;2.47;2.00;;;;;;;9.59;42.53;100616.01;1759347;80;22236;-80
2020/12/26 11:24:21;;;;;;;3.67;2.33;;;;;;;9.58;42.35;100623.66;1763147;80;21185;-81
2020/12/26 11:26:48;;;;;;;2.90;2.25;;;;;;;9.56;42.51;100631.84;1776734;78;21186;-77
2020/12/26 11:29:16;;;;;;;3.42;2.70;;;;;;;9.54;42.32;100621.80;1794951;78;21185;-78
2020/12/26 11:31:44;;;;;;;5.30;2.40;;;;;;;9.49;42.20;100632.06;1791638;78;21641;-80
2020/12/26 11:34:12;;;;;;;4.95;2.67;;;;;;;9.49;42.75;100640.09;1763066;80;21404;-78
2020/12/26 11:36:40;;;;;;;3.58;2.62;;;;;;;9.49;42.81;100645.44;1771353;78;21042;-77
2020/12/26 11:39:10;;;;;;;5.75;2.75;;;;;;;9.51;42.68;100658.18;1751578;80;22018;-78
2020/12/26 11:41:38;;;;;;;4.40;3.15;;;;;;;9.51;42.26;100667.54;1761442;80;21343;-77
2020/12/26 11:44:06;;;;;;;4.80;2.62;;;;;;;9.52;42.50;100667.87;1779926;80;21172;-77